sensor_id;sensor_type;location;lat;lon;timestamp;P1;durP1;ratioP1;P2;durP2;ratioP2
12880;SDS011;6508;53.786;9.996;2023-11-19T00:01:14;11.25;;;8.35;;
12880;SDS011;6508;53.786;9.996;2023-11-19T00:03:42;11.93;;;8.93;;
12880;SDS011;6508;53.786;9.996;2023-11-19T00:06:10;9.05;;;7.25;;
12880;SDS011;6508;53.786;9.996;2023-11-19T00:08:40;11.05;;;7.90;;
12880;SDS011;6508;53.786;9.996;2023-11-19T00:11:07;11.05;;;7.95;;
12880;SDS011;6508;53.786;9.996;2023-11-19T00:13:35;14.60;;;8.00;;
12880;SDS011;6508;53.786;9.996;2023-11-19T00:16:03;8.93;;;6.82;;
12880;SDS011;6508;53.786;9.996;2023-11-19T00:18:31;8.05;;;6.45;;
12880;SDS011;6508;53.786;9.996;2023-11-19T00:20:59;7.70;;;6.28;;
12880;SDS011;6508;53.786;9.996;2023-11-19T00:23:27;7.75;;;6.90;;
12880;SDS011;6508;53.786;9.996;2023-11-19T00:25:56;7.63;;;6.18;;
12880;SDS011;6508;53.786;9.996;2023-11-19T00:28:24;8.57;;;6.57;;
12880;SDS011;6508;53.786;9.996;2023-11-19T00:30:52;6.18;;;5.57;;
12880;SDS011;6508;53.786;9.996;2023-11-19T00:33:20;7.20;;;5.97;;
12880;SDS011;6508;53.786;9.996;2023-11-19T00:35:48;6.78;;;5.47;;
12880;SDS011;6508;53.786;9.996;2023-11-19T00:38:16;5.72;;;5.18;;
12880;SDS011;6508;53.786;9.996;2023-11-19T00:40:43;5.60;;;5.10;;
12880;SDS011;6508;53.786;9.996;2023-11-19T00:43:13;5.72;;;5.13;;
12880;SDS011;6508;53.786;9.996;2023-11-19T00:45:40;5.20;;;4.65;;
12880;SDS011;6508;53.786;9.996;2023-11-19T00:48:09;4.20;;;3.88;;
12880;SDS011;6508;53.786;9.996;2023-11-19T00:50:38;4.43;;;4.03;;
12880;SDS011;6508;53.786;9.996;2023-11-19T00:53:09;4.57;;;4.18;;
12880;SDS011;6508;53.786;9.996;2023-11-19T00:55:37;4.35;;;3.95;;
12880;SDS011;6508;53.786;9.996;2023-11-19T00:58:14;4.15;;;3.75;;
12880;SDS011;6508;53.786;9.996;2023-11-19T01:00:44;3.88;;;3.58;;
12880;SDS011;6508;53.786;9.996;2023-11-19T01:03:11;4.35;;;3.95;;
12880;SDS011;6508;53.786;9.996;2023-11-19T01:05:40;4.00;;;3.70;;
12880;SDS011;6508;53.786;9.996;2023-11-19T01:08:07;4.22;;;3.83;;
12880;SDS011;6508;53.786;9.996;2023-11-19T01:10:36;4.15;;;3.35;;
12880;SDS011;6508;53.786;9.996;2023-11-19T01:13:04;4.10;;;3.70;;
12880;SDS011;6508;53.786;9.996;2023-11-19T01:15:34;7.60;;;3.58;;
12880;SDS011;6508;53.786;9.996;2023-11-19T01:18:02;3.97;;;3.55;;
12880;SDS011;6508;53.786;9.996;2023-11-19T01:20:31;3.35;;;3.00;;
12880;SDS011;6508;53.786;9.996;2023-11-19T01:23:00;3.33;;;2.92;;
12880;SDS011;6508;53.786;9.996;2023-11-19T01:25:28;3.40;;;3.20;;
12880;SDS011;6508;53.786;9.996;2023-11-19T01:27:56;3.40;;;3.10;;
12880;SDS011;6508;53.786;9.996;2023-11-19T01:30:24;3.50;;;2.63;;
12880;SDS011;6508;53.786;9.996;2023-11-19T01:32:53;3.13;;;2.72;;
12880;SDS011;6508;53.786;9.996;2023-11-19T01:35:22;3.03;;;2.60;;
12880;SDS011;6508;53.786;9.996;2023-11-19T01:37:53;2.75;;;2.55;;
12880;SDS011;6508;53.786;9.996;2023-11-19T01:40:21;2.80;;;2.60;;
12880;SDS011;6508;53.786;9.996;2023-11-19T01:42:48;2.47;;;2.28;;
12880;SDS011;6508;53.786;9.996;2023-11-19T01:45:21;2.53;;;2.33;;
12880;SDS011;6508;53.786;9.996;2023-11-19T01:47:50;2.97;;;2.08;;
12880;SDS011;6508;53.786;9.996;2023-11-19T01:50:20;2.30;;;2.10;;
12880;SDS011;6508;53.786;9.996;2023-11-19T01:52:48;1.92;;;1.83;;
12880;SDS011;6508;53.786;9.996;2023-11-19T01:55:15;2.20;;;2.10;;
12880;SDS011;6508;53.786;9.996;2023-11-19T01:57:43;2.13;;;2.03;;
12880;SDS011;6508;53.786;9.996;2023-11-19T02:00:12;2.00;;;1.90;;
12880;SDS011;6508;53.786;9.996;2023-11-19T02:02:42;1.60;;;1.50;;
12880;SDS011;6508;53.786;9.996;2023-11-19T02:05:11;1.80;;;1.70;;
12880;SDS011;6508;53.786;9.996;2023-11-19T02:07:41;1.88;;;1.77;;
12880;SDS011;6508;53.786;9.996;2023-11-19T02:10:10;1.50;;;1.40;;
12880;SDS011;6508;53.786;9.996;2023-11-19T02:12:40;1.70;;;1.40;;
12880;SDS011;6508;53.786;9.996;2023-11-19T02:15:10;1.42;;;1.42;;
12880;SDS011;6508;53.786;9.996;2023-11-19T02:17:38;1.80;;;1.70;;
12880;SDS011;6508;53.786;9.996;2023-11-19T02:20:06;1.58;;;1.48;;
12880;SDS011;6508;53.786;9.996;2023-11-19T02:22:35;1.42;;;1.40;;
12880;SDS011;6508;53.786;9.996;2023-11-19T02:25:06;1.40;;;1.30;;
12880;SDS011;6508;53.786;9.996;2023-11-19T02:27:43;1.40;;;1.30;;
12880;SDS011;6508;53.786;9.996;2023-11-19T02:30:11;1.45;;;1.35;;
12880;SDS011;6508;53.786;9.996;2023-11-19T02:32:39;1.42;;;1.33;;
12880;SDS011;6508;53.786;9.996;2023-11-19T02:35:08;1.30;;;1.20;;
12880;SDS011;6508;53.786;9.996;2023-11-19T02:37:36;1.20;;;1.20;;
12880;SDS011;6508;53.786;9.996;2023-11-19T02:40:05;1.48;;;1.17;;
12880;SDS011;6508;53.786;9.996;2023-11-19T02:42:35;1.30;;;1.30;;
12880;SDS011;6508;53.786;9.996;2023-11-19T02:45:05;3.17;;;1.20;;
12880;SDS011;6508;53.786;9.996;2023-11-19T02:47:34;1.40;;;1.30;;
12880;SDS011;6508;53.786;9.996;2023-11-19T02:50:03;1.40;;;1.30;;
12880;SDS011;6508;53.786;9.996;2023-11-19T02:52:33;1.30;;;1.30;;
12880;SDS011;6508;53.786;9.996;2023-11-19T02:55:04;1.23;;;1.20;;
12880;SDS011;6508;53.786;9.996;2023-11-19T02:57:35;1.10;;;1.00;;
12880;SDS011;6508;53.786;9.996;2023-11-19T03:00:06;1.00;;;1.00;;
12880;SDS011;6508;53.786;9.996;2023-11-19T03:02:39;1.52;;;1.45;;
12880;SDS011;6508;53.786;9.996;2023-11-19T03:05:12;0.80;;;0.80;;
12880;SDS011;6508;53.786;9.996;2023-11-19T03:07:41;1.13;;;1.13;;
12880;SDS011;6508;53.786;9.996;2023-11-19T03:10:10;1.10;;;1.00;;
12880;SDS011;6508;53.786;9.996;2023-11-19T03:12:40;0.93;;;0.90;;
12880;SDS011;6508;53.786;9.996;2023-11-19T03:15:10;0.80;;;0.80;;
12880;SDS011;6508;53.786;9.996;2023-11-19T03:17:38;1.08;;;1.08;;
12880;SDS011;6508;53.786;9.996;2023-11-19T03:20:06;1.20;;;1.13;;
12880;SDS011;6508;53.786;9.996;2023-11-19T03:22:36;2.17;;;1.40;;
12880;SDS011;6508;53.786;9.996;2023-11-19T03:25:04;1.52;;;1.10;;
12880;SDS011;6508;53.786;9.996;2023-11-19T03:27:35;1.13;;;1.13;;
12880;SDS011;6508;53.786;9.996;2023-11-19T03:30:03;1.30;;;1.20;;
12880;SDS011;6508;53.786;9.996;2023-11-19T03:32:33;1.50;;;1.40;;
12880;SDS011;6508;53.786;9.996;2023-11-19T03:35:02;1.67;;;1.58;;
12880;SDS011;6508;53.786;9.996;2023-11-19T03:37:30;1.40;;;1.30;;
12880;SDS011;6508;53.786;9.996;2023-11-19T03:40:00;1.70;;;1.60;;
12880;SDS011;6508;53.786;9.996;2023-11-19T03:42:29;2.20;;;2.10;;
12880;SDS011;6508;53.786;9.996;2023-11-19T03:44:57;1.85;;;1.75;;
12880;SDS011;6508;53.786;9.996;2023-11-19T03:47:25;2.35;;;2.25;;
12880;SDS011;6508;53.786;9.996;2023-11-19T03:49:54;2.85;;;2.65;;
12880;SDS011;6508;53.786;9.996;2023-11-19T03:52:22;3.43;;;3.23;;
12880;SDS011;6508;53.786;9.996;2023-11-19T03:54:50;2.60;;;2.40;;
12880;SDS011;6508;53.786;9.996;2023-11-19T03:57:18;3.00;;;2.80;;
12880;SDS011;6508;53.786;9.996;2023-11-19T03:59:46;4.25;;;3.95;;
12880;SDS011;6508;53.786;9.996;2023-11-19T04:02:14;4.50;;;4.10;;
12880;SDS011;6508;53.786;9.996;2023-11-19T04:04:42;4.60;;;4.30;;
12880;SDS011;6508;53.786;9.996;2023-11-19T04:07:12;4.85;;;4.32;;
12880;SDS011;6508;53.786;9.996;2023-11-19T04:09:40;5.05;;;4.53;;
12880;SDS011;6508;53.786;9.996;2023-11-19T04:12:08;5.95;;;4.32;;
12880;SDS011;6508;53.786;9.996;2023-11-19T04:14:36;5.18;;;4.65;;
12880;SDS011;6508;53.786;9.996;2023-11-19T04:17:03;5.10;;;4.70;;
12880;SDS011;6508;53.786;9.996;2023-11-19T04:19:31;5.05;;;4.65;;
12880;SDS011;6508;53.786;9.996;2023-11-19T04:21:59;5.47;;;4.97;;
12880;SDS011;6508;53.786;9.996;2023-11-19T04:24:29;5.25;;;4.82;;
12880;SDS011;6508;53.786;9.996;2023-11-19T04:26:57;5.13;;;4.72;;
12880;SDS011;6508;53.786;9.996;2023-11-19T04:29:24;5.65;;;5.15;;
12880;SDS011;6508;53.786;9.996;2023-11-19T04:31:52;8.60;;;6.00;;
12880;SDS011;6508;53.786;9.996;2023-11-19T04:34:20;6.82;;;6.13;;
12880;SDS011;6508;53.786;9.996;2023-11-19T04:36:49;8.23;;;6.95;;
12880;SDS011;6508;53.786;9.996;2023-11-19T04:39:17;11.35;;;6.82;;
12880;SDS011;6508;53.786;9.996;2023-11-19T04:41:47;9.23;;;6.93;;
12880;SDS011;6508;53.786;9.996;2023-11-19T04:44:15;10.70;;;8.18;;
12880;SDS011;6508;53.786;9.996;2023-11-19T04:46:44;12.90;;;9.13;;
12880;SDS011;6508;53.786;9.996;2023-11-19T04:49:12;13.98;;;8.48;;
12880;SDS011;6508;53.786;9.996;2023-11-19T04:51:41;11.55;;;8.90;;
12880;SDS011;6508;53.786;9.996;2023-11-19T04:54:09;15.98;;;10.15;;
12880;SDS011;6508;53.786;9.996;2023-11-19T04:56:37;12.85;;;9.43;;
12880;SDS011;6508;53.786;9.996;2023-11-19T04:59:06;11.05;;;9.02;;
12880;SDS011;6508;53.786;9.996;2023-11-19T05:01:34;12.85;;;9.30;;
12880;SDS011;6508;53.786;9.996;2023-11-19T05:04:02;15.25;;;10.07;;
12880;SDS011;6508;53.786;9.996;2023-11-19T05:06:31;14.77;;;9.85;;
12880;SDS011;6508;53.786;9.996;2023-11-19T05:08:59;14.70;;;10.18;;
12880;SDS011;6508;53.786;9.996;2023-11-19T05:11:31;17.80;;;10.80;;
12880;SDS011;6508;53.786;9.996;2023-11-19T05:14:02;18.20;;;11.07;;
12880;SDS011;6508;53.786;9.996;2023-11-19T05:16:31;26.20;;;11.82;;
12880;SDS011;6508;53.786;9.996;2023-11-19T05:19:00;20.88;;;11.77;;
12880;SDS011;6508;53.786;9.996;2023-11-19T05:21:27;22.30;;;12.10;;
12880;SDS011;6508;53.786;9.996;2023-11-19T05:23:55;19.27;;;12.07;;
12880;SDS011;6508;53.786;9.996;2023-11-19T05:26:23;22.52;;;12.55;;
12880;SDS011;6508;53.786;9.996;2023-11-19T05:28:51;19.80;;;12.07;;
12880;SDS011;6508;53.786;9.996;2023-11-19T05:31:19;22.02;;;13.20;;
12880;SDS011;6508;53.786;9.996;2023-11-19T05:33:48;24.30;;;14.38;;
12880;SDS011;6508;53.786;9.996;2023-11-19T05:36:16;29.48;;;14.07;;
12880;SDS011;6508;53.786;9.996;2023-11-19T05:38:44;24.77;;;13.15;;
12880;SDS011;6508;53.786;9.996;2023-11-19T05:41:12;25.10;;;13.77;;
12880;SDS011;6508;53.786;9.996;2023-11-19T05:43:40;30.40;;;14.48;;
12880;SDS011;6508;53.786;9.996;2023-11-19T05:46:07;26.88;;;13.80;;
12880;SDS011;6508;53.786;9.996;2023-11-19T05:48:38;26.75;;;14.35;;
12880;SDS011;6508;53.786;9.996;2023-11-19T05:51:08;27.48;;;14.13;;
12880;SDS011;6508;53.786;9.996;2023-11-19T05:53:35;30.80;;;15.48;;
12880;SDS011;6508;53.786;9.996;2023-11-19T05:56:03;28.52;;;13.90;;
12880;SDS011;6508;53.786;9.996;2023-11-19T05:58:31;27.15;;;14.23;;
12880;SDS011;6508;53.786;9.996;2023-11-19T06:01:00;28.75;;;15.02;;
12880;SDS011;6508;53.786;9.996;2023-11-19T06:03:29;26.58;;;14.13;;
12880;SDS011;6508;53.786;9.996;2023-11-19T06:05:57;29.58;;;14.35;;
12880;SDS011;6508;53.786;9.996;2023-11-19T06:08:26;25.70;;;14.80;;
12880;SDS011;6508;53.786;9.996;2023-11-19T06:10:54;27.77;;;14.55;;
12880;SDS011;6508;53.786;9.996;2023-11-19T06:13:23;26.95;;;15.85;;
12880;SDS011;6508;53.786;9.996;2023-11-19T06:15:52;29.05;;;14.43;;
12880;SDS011;6508;53.786;9.996;2023-11-19T06:18:19;30.23;;;14.15;;
12880;SDS011;6508;53.786;9.996;2023-11-19T06:20:47;32.95;;;14.05;;
12880;SDS011;6508;53.786;9.996;2023-11-19T06:23:16;30.02;;;15.27;;
12880;SDS011;6508;53.786;9.996;2023-11-19T06:25:45;35.00;;;15.40;;
12880;SDS011;6508;53.786;9.996;2023-11-19T06:28:13;32.15;;;14.93;;
12880;SDS011;6508;53.786;9.996;2023-11-19T06:30:41;31.25;;;15.15;;
12880;SDS011;6508;53.786;9.996;2023-11-19T06:33:12;28.30;;;14.55;;
12880;SDS011;6508;53.786;9.996;2023-11-19T06:35:40;27.27;;;14.23;;
12880;SDS011;6508;53.786;9.996;2023-11-19T06:38:08;35.47;;;14.90;;
12880;SDS011;6508;53.786;9.996;2023-11-19T06:40:35;34.33;;;15.30;;
12880;SDS011;6508;53.786;9.996;2023-11-19T06:43:05;35.78;;;13.60;;
12880;SDS011;6508;53.786;9.996;2023-11-19T06:45:35;31.88;;;13.18;;
12880;SDS011;6508;53.786;9.996;2023-11-19T06:48:03;31.83;;;12.57;;
12880;SDS011;6508;53.786;9.996;2023-11-19T06:50:31;30.40;;;12.15;;
12880;SDS011;6508;53.786;9.996;2023-11-19T06:52:59;36.03;;;13.80;;
12880;SDS011;6508;53.786;9.996;2023-11-19T06:55:26;30.77;;;11.93;;
12880;SDS011;6508;53.786;9.996;2023-11-19T06:57:54;30.70;;;12.13;;
12880;SDS011;6508;53.786;9.996;2023-11-19T07:00:23;33.90;;;12.05;;
12880;SDS011;6508;53.786;9.996;2023-11-19T07:02:51;35.38;;;11.73;;
12880;SDS011;6508;53.786;9.996;2023-11-19T07:05:19;31.58;;;10.15;;
12880;SDS011;6508;53.786;9.996;2023-11-19T07:07:46;25.02;;;10.68;;
12880;SDS011;6508;53.786;9.996;2023-11-19T07:10:14;25.73;;;9.63;;
12880;SDS011;6508;53.786;9.996;2023-11-19T07:12:42;28.02;;;9.00;;
12880;SDS011;6508;53.786;9.996;2023-11-19T07:15:12;25.08;;;9.88;;
12880;SDS011;6508;53.786;9.996;2023-11-19T07:17:41;31.38;;;9.88;;
12880;SDS011;6508;53.786;9.996;2023-11-19T07:20:11;21.45;;;10.07;;
12880;SDS011;6508;53.786;9.996;2023-11-19T07:22:39;26.60;;;9.30;;
12880;SDS011;6508;53.786;9.996;2023-11-19T07:25:08;26.58;;;8.20;;
12880;SDS011;6508;53.786;9.996;2023-11-19T07:27:36;34.55;;;8.85;;
12880;SDS011;6508;53.786;9.996;2023-11-19T07:30:05;27.48;;;8.50;;
12880;SDS011;6508;53.786;9.996;2023-11-19T07:32:34;28.95;;;8.32;;
12880;SDS011;6508;53.786;9.996;2023-11-19T07:35:03;27.60;;;8.40;;
12880;SDS011;6508;53.786;9.996;2023-11-19T07:37:32;30.00;;;8.07;;
12880;SDS011;6508;53.786;9.996;2023-11-19T07:40:00;26.35;;;7.60;;
12880;SDS011;6508;53.786;9.996;2023-11-19T07:42:27;30.35;;;7.03;;
12880;SDS011;6508;53.786;9.996;2023-11-19T07:44:55;20.17;;;6.85;;
12880;SDS011;6508;53.786;9.996;2023-11-19T07:47:23;28.17;;;6.65;;
12880;SDS011;6508;53.786;9.996;2023-11-19T07:49:51;30.63;;;6.93;;
12880;SDS011;6508;53.786;9.996;2023-11-19T07:52:20;23.02;;;7.22;;
12880;SDS011;6508;53.786;9.996;2023-11-19T07:54:48;25.40;;;6.88;;
12880;SDS011;6508;53.786;9.996;2023-11-19T07:57:15;30.50;;;6.50;;
12880;SDS011;6508;53.786;9.996;2023-11-19T07:59:44;26.92;;;6.45;;
12880;SDS011;6508;53.786;9.996;2023-11-19T08:02:11;25.02;;;6.72;;
12880;SDS011;6508;53.786;9.996;2023-11-19T08:04:41;25.05;;;5.95;;
12880;SDS011;6508;53.786;9.996;2023-11-19T08:07:12;27.42;;;6.45;;
12880;SDS011;6508;53.786;9.996;2023-11-19T08:09:41;27.65;;;6.47;;
12880;SDS011;6508;53.786;9.996;2023-11-19T08:12:09;26.73;;;6.47;;
12880;SDS011;6508;53.786;9.996;2023-11-19T08:14:37;30.23;;;6.75;;
12880;SDS011;6508;53.786;9.996;2023-11-19T08:17:05;36.28;;;6.65;;
12880;SDS011;6508;53.786;9.996;2023-11-19T08:19:33;27.77;;;6.85;;
12880;SDS011;6508;53.786;9.996;2023-11-19T08:22:01;29.95;;;6.20;;
12880;SDS011;6508;53.786;9.996;2023-11-19T08:24:28;26.30;;;6.88;;
12880;SDS011;6508;53.786;9.996;2023-11-19T08:26:57;24.10;;;5.90;;
12880;SDS011;6508;53.786;9.996;2023-11-19T08:29:29;21.65;;;5.75;;
12880;SDS011;6508;53.786;9.996;2023-11-19T08:31:56;41.70;;;7.32;;
12880;SDS011;6508;53.786;9.996;2023-11-19T08:34:26;35.05;;;6.63;;
12880;SDS011;6508;53.786;9.996;2023-11-19T08:36:54;34.08;;;7.55;;
12880;SDS011;6508;53.786;9.996;2023-11-19T08:39:23;33.03;;;6.82;;
12880;SDS011;6508;53.786;9.996;2023-11-19T08:41:51;38.50;;;7.47;;
12880;SDS011;6508;53.786;9.996;2023-11-19T08:44:20;32.42;;;6.28;;
12880;SDS011;6508;53.786;9.996;2023-11-19T08:46:48;35.63;;;7.20;;
12880;SDS011;6508;53.786;9.996;2023-11-19T08:49:16;34.85;;;6.82;;
12880;SDS011;6508;53.786;9.996;2023-11-19T08:51:44;34.15;;;7.55;;
12880;SDS011;6508;53.786;9.996;2023-11-19T08:54:12;47.17;;;8.13;;
12880;SDS011;6508;53.786;9.996;2023-11-19T08:56:40;29.63;;;6.32;;
12880;SDS011;6508;53.786;9.996;2023-11-19T08:59:08;29.38;;;5.55;;
12880;SDS011;6508;53.786;9.996;2023-11-19T09:01:37;31.77;;;5.90;;
12880;SDS011;6508;53.786;9.996;2023-11-19T09:04:06;30.50;;;7.22;;
12880;SDS011;6508;53.786;9.996;2023-11-19T09:06:35;35.97;;;6.88;;
12880;SDS011;6508;53.786;9.996;2023-11-19T09:09:03;30.02;;;6.05;;
12880;SDS011;6508;53.786;9.996;2023-11-19T09:11:32;24.05;;;5.95;;
12880;SDS011;6508;53.786;9.996;2023-11-19T09:13:59;23.20;;;5.70;;
12880;SDS011;6508;53.786;9.996;2023-11-19T09:16:27;28.83;;;6.18;;
12880;SDS011;6508;53.786;9.996;2023-11-19T09:18:56;28.02;;;5.60;;
12880;SDS011;6508;53.786;9.996;2023-11-19T09:21:25;25.67;;;6.05;;
12880;SDS011;6508;53.786;9.996;2023-11-19T09:23:53;27.83;;;6.30;;
12880;SDS011;6508;53.786;9.996;2023-11-19T09:26:21;29.75;;;5.93;;
12880;SDS011;6508;53.786;9.996;2023-11-19T09:28:50;32.42;;;6.75;;
12880;SDS011;6508;53.786;9.996;2023-11-19T09:31:18;32.67;;;6.47;;
12880;SDS011;6508;53.786;9.996;2023-11-19T09:33:46;31.50;;;7.07;;
12880;SDS011;6508;53.786;9.996;2023-11-19T09:36:15;33.47;;;5.88;;
12880;SDS011;6508;53.786;9.996;2023-11-19T09:38:44;31.42;;;5.63;;
12880;SDS011;6508;53.786;9.996;2023-11-19T09:41:12;26.50;;;5.32;;
12880;SDS011;6508;53.786;9.996;2023-11-19T09:43:40;34.63;;;6.05;;
12880;SDS011;6508;53.786;9.996;2023-11-19T09:46:09;29.30;;;5.63;;
12880;SDS011;6508;53.786;9.996;2023-11-19T09:48:38;28.25;;;7.07;;
12880;SDS011;6508;53.786;9.996;2023-11-19T09:51:06;22.35;;;5.90;;
12880;SDS011;6508;53.786;9.996;2023-11-19T09:53:36;22.88;;;5.20;;
12880;SDS011;6508;53.786;9.996;2023-11-19T09:56:04;22.17;;;5.20;;
12880;SDS011;6508;53.786;9.996;2023-11-19T09:58:32;35.15;;;6.47;;
12880;SDS011;6508;53.786;9.996;2023-11-19T10:01:00;32.88;;;5.68;;
12880;SDS011;6508;53.786;9.996;2023-11-19T10:03:32;28.10;;;6.57;;
12880;SDS011;6508;53.786;9.996;2023-11-19T10:06:00;31.73;;;6.20;;
12880;SDS011;6508;53.786;9.996;2023-11-19T10:08:28;42.25;;;6.88;;
12880;SDS011;6508;53.786;9.996;2023-11-19T10:10:57;18.35;;;4.97;;
12880;SDS011;6508;53.786;9.996;2023-11-19T10:13:26;33.47;;;6.40;;
12880;SDS011;6508;53.786;9.996;2023-11-19T10:15:56;29.98;;;6.28;;
12880;SDS011;6508;53.786;9.996;2023-11-19T10:18:25;31.10;;;5.55;;
12880;SDS011;6508;53.786;9.996;2023-11-19T10:20:53;29.00;;;6.10;;
12880;SDS011;6508;53.786;9.996;2023-11-19T10:23:22;23.48;;;5.13;;
12880;SDS011;6508;53.786;9.996;2023-11-19T10:25:50;29.10;;;5.60;;
12880;SDS011;6508;53.786;9.996;2023-11-19T10:28:21;30.38;;;5.25;;
12880;SDS011;6508;53.786;9.996;2023-11-19T10:30:49;29.65;;;6.65;;
12880;SDS011;6508;53.786;9.996;2023-11-19T10:33:16;40.05;;;5.97;;
12880;SDS011;6508;53.786;9.996;2023-11-19T10:35:53;25.92;;;6.30;;
12880;SDS011;6508;53.786;9.996;2023-11-19T10:38:24;28.33;;;6.47;;
12880;SDS011;6508;53.786;9.996;2023-11-19T10:40:53;33.08;;;6.00;;
12880;SDS011;6508;53.786;9.996;2023-11-19T10:43:22;30.55;;;5.47;;
12880;SDS011;6508;53.786;9.996;2023-11-19T10:45:51;30.63;;;5.32;;
12880;SDS011;6508;53.786;9.996;2023-11-19T10:48:19;26.73;;;5.45;;
12880;SDS011;6508;53.786;9.996;2023-11-19T10:50:49;29.55;;;5.85;;
12880;SDS011;6508;53.786;9.996;2023-11-19T10:53:20;28.38;;;5.95;;
12880;SDS011;6508;53.786;9.996;2023-11-19T10:55:48;26.63;;;4.60;;
12880;SDS011;6508;53.786;9.996;2023-11-19T10:58:16;25.20;;;6.22;;
12880;SDS011;6508;53.786;9.996;2023-11-19T11:00:47;28.92;;;5.68;;
12880;SDS011;6508;53.786;9.996;2023-11-19T11:03:18;32.03;;;5.45;;
12880;SDS011;6508;53.786;9.996;2023-11-19T11:05:47;33.72;;;6.95;;
12880;SDS011;6508;53.786;9.996;2023-11-19T11:08:15;23.95;;;5.50;;
12880;SDS011;6508;53.786;9.996;2023-11-19T11:10:44;18.08;;;4.93;;
12880;SDS011;6508;53.786;9.996;2023-11-19T11:13:15;27.58;;;5.82;;
12880;SDS011;6508;53.786;9.996;2023-11-19T11:15:45;25.23;;;4.95;;
12880;SDS011;6508;53.786;9.996;2023-11-19T11:18:14;33.60;;;6.45;;
12880;SDS011;6508;53.786;9.996;2023-11-19T11:20:42;31.25;;;5.25;;
12880;SDS011;6508;53.786;9.996;2023-11-19T11:23:24;27.33;;;6.38;;
12880;SDS011;6508;53.786;9.996;2023-11-19T11:25:58;25.30;;;6.15;;
12880;SDS011;6508;53.786;9.996;2023-11-19T11:28:29;25.42;;;5.18;;
12880;SDS011;6508;53.786;9.996;2023-11-19T11:31:08;38.78;;;6.28;;
12880;SDS011;6508;53.786;9.996;2023-11-19T11:33:41;26.58;;;5.30;;
12880;SDS011;6508;53.786;9.996;2023-11-19T11:36:30;34.28;;;5.85;;
12880;SDS011;6508;53.786;9.996;2023-11-19T11:38:59;25.30;;;5.45;;
12880;SDS011;6508;53.786;9.996;2023-11-19T11:41:27;23.10;;;4.32;;
12880;SDS011;6508;53.786;9.996;2023-11-19T11:43:57;30.15;;;5.72;;
12880;SDS011;6508;53.786;9.996;2023-11-19T11:49:13;29.67;;;4.85;;
12880;SDS011;6508;53.786;9.996;2023-11-19T11:51:57;24.58;;;5.07;;
12880;SDS011;6508;53.786;9.996;2023-11-19T11:54:26;22.00;;;5.25;;
12880;SDS011;6508;53.786;9.996;2023-11-19T11:57:00;26.52;;;6.13;;
12880;SDS011;6508;53.786;9.996;2023-11-19T11:59:36;25.58;;;5.47;;
12880;SDS011;6508;53.786;9.996;2023-11-19T12:02:04;29.42;;;5.28;;
12880;SDS011;6508;53.786;9.996;2023-11-19T12:04:36;21.10;;;5.47;;
12880;SDS011;6508;53.786;9.996;2023-11-19T12:07:04;29.10;;;5.47;;
12880;SDS011;6508;53.786;9.996;2023-11-19T12:09:33;21.15;;;5.22;;
12880;SDS011;6508;53.786;9.996;2023-11-19T12:12:07;27.23;;;4.80;;
12880;SDS011;6508;53.786;9.996;2023-11-19T12:17:41;28.60;;;5.55;;
12880;SDS011;6508;53.786;9.996;2023-11-19T12:20:12;23.48;;;5.05;;
12880;SDS011;6508;53.786;9.996;2023-11-19T12:22:40;25.05;;;5.53;;
12880;SDS011;6508;53.786;9.996;2023-11-19T12:25:11;28.20;;;5.93;;
12880;SDS011;6508;53.786;9.996;2023-11-19T12:27:40;27.95;;;5.03;;
12880;SDS011;6508;53.786;9.996;2023-11-19T12:30:08;29.05;;;5.95;;
12880;SDS011;6508;53.786;9.996;2023-11-19T12:32:39;25.08;;;5.00;;
12880;SDS011;6508;53.786;9.996;2023-11-19T12:35:08;20.45;;;5.30;;
12880;SDS011;6508;53.786;9.996;2023-11-19T12:37:42;35.40;;;6.03;;
12880;SDS011;6508;53.786;9.996;2023-11-19T12:40:14;28.23;;;5.60;;
12880;SDS011;6508;53.786;9.996;2023-11-19T12:42:42;25.67;;;5.63;;
12880;SDS011;6508;53.786;9.996;2023-11-19T12:45:10;26.85;;;5.72;;
12880;SDS011;6508;53.786;9.996;2023-11-19T12:47:38;30.10;;;5.57;;
12880;SDS011;6508;53.786;9.996;2023-11-19T12:50:07;26.05;;;6.22;;
12880;SDS011;6508;53.786;9.996;2023-11-19T12:52:35;31.88;;;6.82;;
12880;SDS011;6508;53.786;9.996;2023-11-19T12:55:05;36.25;;;7.30;;
12880;SDS011;6508;53.786;9.996;2023-11-19T12:57:37;28.25;;;5.70;;
12880;SDS011;6508;53.786;9.996;2023-11-19T13:00:05;31.27;;;5.38;;
12880;SDS011;6508;53.786;9.996;2023-11-19T13:02:46;28.65;;;5.50;;
12880;SDS011;6508;53.786;9.996;2023-11-19T13:05:27;35.15;;;5.43;;
12880;SDS011;6508;53.786;9.996;2023-11-19T13:07:59;38.08;;;6.40;;
12880;SDS011;6508;53.786;9.996;2023-11-19T13:10:29;31.38;;;5.55;;
12880;SDS011;6508;53.786;9.996;2023-11-19T13:13:00;23.92;;;5.43;;
12880;SDS011;6508;53.786;9.996;2023-11-19T13:15:29;30.92;;;5.28;;
12880;SDS011;6508;53.786;9.996;2023-11-19T13:17:57;41.53;;;5.78;;
12880;SDS011;6508;53.786;9.996;2023-11-19T13:20:24;22.05;;;4.97;;
12880;SDS011;6508;53.786;9.996;2023-11-19T13:22:56;31.67;;;5.97;;
12880;SDS011;6508;53.786;9.996;2023-11-19T13:25:24;28.58;;;6.68;;
12880;SDS011;6508;53.786;9.996;2023-11-19T13:27:53;25.33;;;5.22;;
12880;SDS011;6508;53.786;9.996;2023-11-19T13:30:21;21.25;;;4.57;;
12880;SDS011;6508;53.786;9.996;2023-11-19T13:32:52;36.17;;;6.47;;
12880;SDS011;6508;53.786;9.996;2023-11-19T13:35:22;24.05;;;5.35;;
12880;SDS011;6508;53.786;9.996;2023-11-19T13:37:50;30.70;;;5.35;;
12880;SDS011;6508;53.786;9.996;2023-11-19T13:40:19;25.67;;;6.03;;
12880;SDS011;6508;53.786;9.996;2023-11-19T13:42:49;23.23;;;5.15;;
12880;SDS011;6508;53.786;9.996;2023-11-19T13:45:18;30.33;;;6.38;;
12880;SDS011;6508;53.786;9.996;2023-11-19T13:47:47;20.85;;;4.65;;
12880;SDS011;6508;53.786;9.996;2023-11-19T13:50:15;26.95;;;5.20;;
12880;SDS011;6508;53.786;9.996;2023-11-19T13:52:44;26.83;;;4.57;;
12880;SDS011;6508;53.786;9.996;2023-11-19T13:55:13;31.88;;;6.20;;
12880;SDS011;6508;53.786;9.996;2023-11-19T13:57:41;16.80;;;4.55;;
12880;SDS011;6508;53.786;9.996;2023-11-19T14:00:10;28.52;;;6.20;;
12880;SDS011;6508;53.786;9.996;2023-11-19T14:02:41;30.23;;;5.72;;
12880;SDS011;6508;53.786;9.996;2023-11-19T14:05:09;35.10;;;6.13;;
12880;SDS011;6508;53.786;9.996;2023-11-19T14:07:37;32.05;;;5.80;;
12880;SDS011;6508;53.786;9.996;2023-11-19T14:10:06;30.15;;;4.45;;
12880;SDS011;6508;53.786;9.996;2023-11-19T14:12:34;32.67;;;4.75;;
12880;SDS011;6508;53.786;9.996;2023-11-19T14:15:03;18.98;;;4.15;;
12880;SDS011;6508;53.786;9.996;2023-11-19T14:17:32;26.05;;;5.03;;
12880;SDS011;6508;53.786;9.996;2023-11-19T14:20:02;27.70;;;4.65;;
12880;SDS011;6508;53.786;9.996;2023-11-19T14:22:31;31.13;;;4.93;;
12880;SDS011;6508;53.786;9.996;2023-11-19T14:24:59;28.05;;;5.63;;
12880;SDS011;6508;53.786;9.996;2023-11-19T14:27:27;32.03;;;5.55;;
12880;SDS011;6508;53.786;9.996;2023-11-19T14:29:55;28.58;;;4.75;;
12880;SDS011;6508;53.786;9.996;2023-11-19T14:32:22;28.58;;;6.60;;
12880;SDS011;6508;53.786;9.996;2023-11-19T14:34:50;20.33;;;4.70;;
12880;SDS011;6508;53.786;9.996;2023-11-19T14:37:19;16.27;;;4.90;;
12880;SDS011;6508;53.786;9.996;2023-11-19T14:39:46;20.60;;;3.85;;
12880;SDS011;6508;53.786;9.996;2023-11-19T14:42:18;24.20;;;4.15;;
12880;SDS011;6508;53.786;9.996;2023-11-19T14:44:45;15.00;;;3.83;;
12880;SDS011;6508;53.786;9.996;2023-11-19T14:47:14;26.45;;;4.55;;
12880;SDS011;6508;53.786;9.996;2023-11-19T14:49:42;17.42;;;4.18;;
12880;SDS011;6508;53.786;9.996;2023-11-19T14:52:09;24.92;;;4.53;;
12880;SDS011;6508;53.786;9.996;2023-11-19T14:54:42;19.00;;;4.22;;
12880;SDS011;6508;53.786;9.996;2023-11-19T14:57:10;18.80;;;4.07;;
12880;SDS011;6508;53.786;9.996;2023-11-19T14:59:38;10.80;;;3.85;;
12880;SDS011;6508;53.786;9.996;2023-11-19T15:02:06;16.13;;;3.97;;
12880;SDS011;6508;53.786;9.996;2023-11-19T15:04:34;14.45;;;3.33;;
12880;SDS011;6508;53.786;9.996;2023-11-19T15:07:02;15.32;;;3.22;;